sensor_id;sensor_type;location;lat;lon;timestamp;P1;durP1;ratioP1;P2;durP2;ratioP2
15012;SDS011;7603;49.432;11.418;2023-07-30T00:02:16;2.80;;;2.60;;
15012;SDS011;7603;49.432;11.418;2023-07-30T00:04:43;2.97;;;2.70;;
15012;SDS011;7603;49.432;11.418;2023-07-30T00:07:09;4.97;;;2.63;;
15012;SDS011;7603;49.432;11.418;2023-07-30T00:09:35;3.03;;;2.83;;
15012;SDS011;7603;49.432;11.418;2023-07-30T00:12:01;3.67;;;2.85;;
15012;SDS011;7603;49.432;11.418;2023-07-30T00:14:27;4.10;;;3.40;;
15012;SDS011;7603;49.432;11.418;2023-07-30T00:16:53;2.83;;;2.63;;
15012;SDS011;7603;49.432;11.418;2023-07-30T00:19:18;3.75;;;3.13;;
15012;SDS011;7603;49.432;11.418;2023-07-30T00:21:44;3.08;;;2.88;;
15012;SDS011;7603;49.432;11.418;2023-07-30T00:24:12;3.65;;;2.80;;
15012;SDS011;7603;49.432;11.418;2023-07-30T00:26:38;2.75;;;2.55;;
15012;SDS011;7603;49.432;11.418;2023-07-30T00:29:03;3.53;;;2.53;;
15012;SDS011;7603;49.432;11.418;2023-07-30T00:31:29;3.35;;;3.03;;
15012;SDS011;7603;49.432;11.418;2023-07-30T00:33:55;2.35;;;2.15;;
15012;SDS011;7603;49.432;11.418;2023-07-30T00:36:20;2.22;;;2.13;;
15012;SDS011;7603;49.432;11.418;2023-07-30T00:38:46;7.85;;;2.53;;
15012;SDS011;7603;49.432;11.418;2023-07-30T00:41:11;2.28;;;2.17;;
15012;SDS011;7603;49.432;11.418;2023-07-30T00:43:37;2.97;;;2.78;;
15012;SDS011;7603;49.432;11.418;2023-07-30T00:46:02;3.50;;;2.72;;
15012;SDS011;7603;49.432;11.418;2023-07-30T00:48:29;2.70;;;2.50;;
15012;SDS011;7603;49.432;11.418;2023-07-30T00:50:55;5.10;;;3.17;;
15012;SDS011;7603;49.432;11.418;2023-07-30T00:53:21;3.00;;;2.80;;
15012;SDS011;7603;49.432;11.418;2023-07-30T00:55:48;4.35;;;2.20;;
15012;SDS011;7603;49.432;11.418;2023-07-30T00:58:14;3.42;;;3.22;;
15012;SDS011;7603;49.432;11.418;2023-07-30T01:00:40;5.65;;;2.67;;
15012;SDS011;7603;49.432;11.418;2023-07-30T01:03:06;3.40;;;3.20;;
15012;SDS011;7603;49.432;11.418;2023-07-30T01:05:32;5.05;;;3.08;;
15012;SDS011;7603;49.432;11.418;2023-07-30T01:07:58;4.00;;;3.28;;
15012;SDS011;7603;49.432;11.418;2023-07-30T01:10:24;4.07;;;3.10;;
15012;SDS011;7603;49.432;11.418;2023-07-30T01:12:50;3.33;;;3.15;;
15012;SDS011;7603;49.432;11.418;2023-07-30T01:15:17;3.80;;;3.60;;
15012;SDS011;7603;49.432;11.418;2023-07-30T01:17:43;3.83;;;3.42;;
15012;SDS011;7603;49.432;11.418;2023-07-30T01:20:10;4.40;;;4.10;;
15012;SDS011;7603;49.432;11.418;2023-07-30T01:22:36;3.63;;;3.40;;
15012;SDS011;7603;49.432;11.418;2023-07-30T01:25:02;3.95;;;3.65;;
15012;SDS011;7603;49.432;11.418;2023-07-30T01:27:28;4.10;;;3.72;;
15012;SDS011;7603;49.432;11.418;2023-07-30T01:32:47;4.20;;;3.90;;
15012;SDS011;7603;49.432;11.418;2023-07-30T01:35:15;6.60;;;4.20;;
15012;SDS011;7603;49.432;11.418;2023-07-30T01:37:42;4.30;;;3.35;;
15012;SDS011;7603;49.432;11.418;2023-07-30T01:40:09;4.78;;;4.38;;
15012;SDS011;7603;49.432;11.418;2023-07-30T01:42:35;4.00;;;3.70;;
15012;SDS011;7603;49.432;11.418;2023-07-30T01:45:02;4.78;;;4.45;;
15012;SDS011;7603;49.432;11.418;2023-07-30T01:47:27;4.70;;;4.32;;
15012;SDS011;7603;49.432;11.418;2023-07-30T01:49:53;4.57;;;4.20;;
15012;SDS011;7603;49.432;11.418;2023-07-30T01:52:19;5.57;;;4.63;;
15012;SDS011;7603;49.432;11.418;2023-07-30T01:54:44;4.88;;;4.47;;
15012;SDS011;7603;49.432;11.418;2023-07-30T01:57:10;4.68;;;4.38;;
15012;SDS011;7603;49.432;11.418;2023-07-30T01:59:37;4.00;;;3.80;;
15012;SDS011;7603;49.432;11.418;2023-07-30T02:02:03;5.03;;;4.70;;
15012;SDS011;7603;49.432;11.418;2023-07-30T02:04:29;4.60;;;4.20;;
15012;SDS011;7603;49.432;11.418;2023-07-30T02:06:54;4.72;;;4.40;;
15012;SDS011;7603;49.432;11.418;2023-07-30T02:09:20;5.03;;;4.68;;
15012;SDS011;7603;49.432;11.418;2023-07-30T02:11:46;4.57;;;4.28;;
15012;SDS011;7603;49.432;11.418;2023-07-30T02:14:12;5.93;;;4.47;;
15012;SDS011;7603;49.432;11.418;2023-07-30T02:16:37;4.88;;;4.57;;
15012;SDS011;7603;49.432;11.418;2023-07-30T02:19:03;6.50;;;4.82;;
15012;SDS011;7603;49.432;11.418;2023-07-30T02:21:29;5.07;;;4.60;;
15012;SDS011;7603;49.432;11.418;2023-07-30T02:23:57;5.32;;;4.95;;
15012;SDS011;7603;49.432;11.418;2023-07-30T02:26:23;7.22;;;5.18;;
15012;SDS011;7603;49.432;11.418;2023-07-30T02:28:49;7.40;;;5.53;;
15012;SDS011;7603;49.432;11.418;2023-07-30T02:31:16;6.57;;;5.50;;
15012;SDS011;7603;49.432;11.418;2023-07-30T02:33:41;8.25;;;5.00;;
15012;SDS011;7603;49.432;11.418;2023-07-30T02:36:07;5.93;;;5.43;;
15012;SDS011;7603;49.432;11.418;2023-07-30T02:38:32;5.22;;;4.72;;
15012;SDS011;7603;49.432;11.418;2023-07-30T02:40:58;5.13;;;4.65;;
15012;SDS011;7603;49.432;11.418;2023-07-30T02:43:23;5.97;;;5.57;;
15012;SDS011;7603;49.432;11.418;2023-07-30T02:45:49;6.25;;;5.85;;
15012;SDS011;7603;49.432;11.418;2023-07-30T02:48:14;5.45;;;4.95;;
15012;SDS011;7603;49.432;11.418;2023-07-30T02:50:40;6.15;;;5.75;;
15012;SDS011;7603;49.432;11.418;2023-07-30T02:53:05;6.35;;;5.78;;
15012;SDS011;7603;49.432;11.418;2023-07-30T02:55:31;5.57;;;5.18;;
15012;SDS011;7603;49.432;11.418;2023-07-30T02:57:57;5.40;;;4.80;;
15012;SDS011;7603;49.432;11.418;2023-07-30T03:00:22;5.47;;;5.05;;
15012;SDS011;7603;49.432;11.418;2023-07-30T03:02:48;9.55;;;5.78;;
15012;SDS011;7603;49.432;11.418;2023-07-30T03:05:13;5.75;;;5.25;;
15012;SDS011;7603;49.432;11.418;2023-07-30T03:07:39;6.00;;;5.38;;
15012;SDS011;7603;49.432;11.418;2023-07-30T03:10:04;4.80;;;4.50;;
15012;SDS011;7603;49.432;11.418;2023-07-30T03:12:30;4.95;;;4.55;;
15012;SDS011;7603;49.432;11.418;2023-07-30T03:14:56;4.90;;;4.45;;
15012;SDS011;7603;49.432;11.418;2023-07-30T03:17:21;5.10;;;4.70;;
15012;SDS011;7603;49.432;11.418;2023-07-30T03:19:47;4.50;;;4.20;;
15012;SDS011;7603;49.432;11.418;2023-07-30T03:22:13;4.05;;;3.75;;
15012;SDS011;7603;49.432;11.418;2023-07-30T03:24:38;4.85;;;4.35;;
15012;SDS011;7603;49.432;11.418;2023-07-30T03:27:04;4.05;;;3.75;;
15012;SDS011;7603;49.432;11.418;2023-07-30T03:29:30;4.43;;;4.13;;
15012;SDS011;7603;49.432;11.418;2023-07-30T03:31:55;4.05;;;3.80;;
15012;SDS011;7603;49.432;11.418;2023-07-30T03:34:21;4.80;;;4.40;;
15012;SDS011;7603;49.432;11.418;2023-07-30T03:36:46;4.63;;;4.07;;
15012;SDS011;7603;49.432;11.418;2023-07-30T03:39:12;4.93;;;4.53;;
15012;SDS011;7603;49.432;11.418;2023-07-30T03:41:38;5.00;;;4.47;;
15012;SDS011;7603;49.432;11.418;2023-07-30T03:44:03;6.45;;;4.45;;
15012;SDS011;7603;49.432;11.418;2023-07-30T03:46:29;6.40;;;5.18;;
15012;SDS011;7603;49.432;11.418;2023-07-30T03:48:54;5.43;;;4.75;;
15012;SDS011;7603;49.432;11.418;2023-07-30T03:51:20;5.32;;;4.50;;
15012;SDS011;7603;49.432;11.418;2023-07-30T03:53:45;4.75;;;4.38;;
15012;SDS011;7603;49.432;11.418;2023-07-30T03:56:11;5.60;;;5.05;;
15012;SDS011;7603;49.432;11.418;2023-07-30T03:58:37;8.23;;;5.50;;
15012;SDS011;7603;49.432;11.418;2023-07-30T04:01:02;6.55;;;5.68;;
15012;SDS011;7603;49.432;11.418;2023-07-30T04:03:28;5.63;;;5.13;;
15012;SDS011;7603;49.432;11.418;2023-07-30T04:05:53;4.78;;;4.47;;
15012;SDS011;7603;49.432;11.418;2023-07-30T04:08:19;4.80;;;4.47;;
15012;SDS011;7603;49.432;11.418;2023-07-30T04:10:44;5.22;;;4.72;;
15012;SDS011;7603;49.432;11.418;2023-07-30T04:13:10;5.20;;;4.80;;
15012;SDS011;7603;49.432;11.418;2023-07-30T04:15:36;5.70;;;5.20;;
15012;SDS011;7603;49.432;11.418;2023-07-30T04:18:01;4.95;;;4.65;;
15012;SDS011;7603;49.432;11.418;2023-07-30T04:20:27;5.20;;;4.70;;
15012;SDS011;7603;49.432;11.418;2023-07-30T04:22:52;5.78;;;5.05;;
15012;SDS011;7603;49.432;11.418;2023-07-30T04:25:18;6.70;;;4.90;;
15012;SDS011;7603;49.432;11.418;2023-07-30T04:27:44;8.50;;;5.03;;
15012;SDS011;7603;49.432;11.418;2023-07-30T04:30:09;7.30;;;5.10;;
15012;SDS011;7603;49.432;11.418;2023-07-30T04:32:35;5.53;;;4.90;;
15012;SDS011;7603;49.432;11.418;2023-07-30T04:35:01;5.63;;;5.22;;
15012;SDS011;7603;49.432;11.418;2023-07-30T04:37:28;5.35;;;4.95;;
15012;SDS011;7603;49.432;11.418;2023-07-30T04:39:53;6.38;;;5.03;;
15012;SDS011;7603;49.432;11.418;2023-07-30T04:42:19;5.80;;;5.45;;
15012;SDS011;7603;49.432;11.418;2023-07-30T04:44:45;6.00;;;5.35;;
15012;SDS011;7603;49.432;11.418;2023-07-30T04:47:10;6.15;;;5.20;;
15012;SDS011;7603;49.432;11.418;2023-07-30T04:49:36;6.57;;;4.82;;
15012;SDS011;7603;49.432;11.418;2023-07-30T04:52:05;4.72;;;4.43;;
15012;SDS011;7603;49.432;11.418;2023-07-30T04:54:31;5.82;;;5.20;;
15012;SDS011;7603;49.432;11.418;2023-07-30T04:56:57;4.97;;;4.50;;
15012;SDS011;7603;49.432;11.418;2023-07-30T04:59:23;4.47;;;4.18;;
15012;SDS011;7603;49.432;11.418;2023-07-30T05:01:48;4.50;;;4.20;;
15012;SDS011;7603;49.432;11.418;2023-07-30T05:04:14;5.68;;;3.95;;
15012;SDS011;7603;49.432;11.418;2023-07-30T05:06:39;9.43;;;4.65;;
15012;SDS011;7603;49.432;11.418;2023-07-30T05:09:05;5.15;;;4.80;;
15012;SDS011;7603;49.432;11.418;2023-07-30T05:11:30;4.75;;;4.35;;
15012;SDS011;7603;49.432;11.418;2023-07-30T05:13:56;5.05;;;4.60;;
15012;SDS011;7603;49.432;11.418;2023-07-30T05:16:22;4.85;;;4.50;;
15012;SDS011;7603;49.432;11.418;2023-07-30T05:18:47;4.15;;;3.95;;
15012;SDS011;7603;49.432;11.418;2023-07-30T05:21:13;5.90;;;5.43;;
15012;SDS011;7603;49.432;11.418;2023-07-30T05:23:38;5.07;;;4.65;;
15012;SDS011;7603;49.432;11.418;2023-07-30T05:26:04;4.38;;;4.07;;
15012;SDS011;7603;49.432;11.418;2023-07-30T05:28:29;4.78;;;4.47;;
15012;SDS011;7603;49.432;11.418;2023-07-30T05:30:55;4.20;;;3.90;;
15012;SDS011;7603;49.432;11.418;2023-07-30T05:33:21;4.30;;;4.03;;
15012;SDS011;7603;49.432;11.418;2023-07-30T05:35:46;4.10;;;3.90;;
15012;SDS011;7603;49.432;11.418;2023-07-30T05:38:13;4.25;;;4.00;;
15012;SDS011;7603;49.432;11.418;2023-07-30T05:40:38;4.57;;;4.28;;
15012;SDS011;7603;49.432;11.418;2023-07-30T05:43:04;3.95;;;3.65;;
15012;SDS011;7603;49.432;11.418;2023-07-30T05:45:29;3.92;;;3.72;;
15012;SDS011;7603;49.432;11.418;2023-07-30T05:47:55;4.25;;;3.95;;
15012;SDS011;7603;49.432;11.418;2023-07-30T05:50:20;4.15;;;3.85;;
15012;SDS011;7603;49.432;11.418;2023-07-30T05:52:46;4.00;;;3.70;;
15012;SDS011;7603;49.432;11.418;2023-07-30T05:55:11;3.55;;;3.35;;
15012;SDS011;7603;49.432;11.418;2023-07-30T05:57:37;4.05;;;3.72;;
15012;SDS011;7603;49.432;11.418;2023-07-30T06:00:03;3.50;;;3.30;;
15012;SDS011;7603;49.432;11.418;2023-07-30T06:02:29;3.58;;;3.38;;
15012;SDS011;7603;49.432;11.418;2023-07-30T06:04:54;4.53;;;3.70;;
15012;SDS011;7603;49.432;11.418;2023-07-30T06:07:20;3.15;;;2.95;;
15012;SDS011;7603;49.432;11.418;2023-07-30T06:09:45;3.20;;;3.00;;
15012;SDS011;7603;49.432;11.418;2023-07-30T06:12:11;3.53;;;3.28;;
15012;SDS011;7603;49.432;11.418;2023-07-30T06:14:37;3.13;;;2.97;;
15012;SDS011;7603;49.432;11.418;2023-07-30T06:17:02;3.67;;;3.15;;
15012;SDS011;7603;49.432;11.418;2023-07-30T06:19:28;3.35;;;3.10;;
15012;SDS011;7603;49.432;11.418;2023-07-30T06:21:54;3.25;;;3.05;;
15012;SDS011;7603;49.432;11.418;2023-07-30T06:24:20;3.08;;;2.90;;
15012;SDS011;7603;49.432;11.418;2023-07-30T06:26:45;2.90;;;2.70;;
15012;SDS011;7603;49.432;11.418;2023-07-30T06:29:11;3.38;;;3.08;;
15012;SDS011;7603;49.432;11.418;2023-07-30T06:31:37;2.95;;;2.83;;
15012;SDS011;7603;49.432;11.418;2023-07-30T06:34:02;2.70;;;2.60;;
15012;SDS011;7603;49.432;11.418;2023-07-30T06:36:28;3.40;;;3.20;;
15012;SDS011;7603;49.432;11.418;2023-07-30T06:38:53;3.00;;;2.80;;
15012;SDS011;7603;49.432;11.418;2023-07-30T06:41:20;5.18;;;3.00;;
15012;SDS011;7603;49.432;11.418;2023-07-30T06:43:46;3.20;;;3.00;;
15012;SDS011;7603;49.432;11.418;2023-07-30T06:46:12;2.72;;;2.55;;
15012;SDS011;7603;49.432;11.418;2023-07-30T06:48:37;2.97;;;2.80;;
15012;SDS011;7603;49.432;11.418;2023-07-30T06:51:06;3.03;;;2.83;;
15012;SDS011;7603;49.432;11.418;2023-07-30T06:53:32;2.92;;;2.72;;
15012;SDS011;7603;49.432;11.418;2023-07-30T06:55:58;5.28;;;2.70;;
15012;SDS011;7603;49.432;11.418;2023-07-30T06:58:23;2.65;;;2.40;;
15012;SDS011;7603;49.432;11.418;2023-07-30T07:00:49;3.00;;;2.70;;
15012;SDS011;7603;49.432;11.418;2023-07-30T07:03:15;3.28;;;2.75;;
15012;SDS011;7603;49.432;11.418;2023-07-30T07:05:40;2.60;;;2.50;;
15012;SDS011;7603;49.432;11.418;2023-07-30T07:08:06;2.53;;;2.35;;
15012;SDS011;7603;49.432;11.418;2023-07-30T07:10:31;2.67;;;2.47;;
15012;SDS011;7603;49.432;11.418;2023-07-30T07:12:57;3.10;;;2.90;;
15012;SDS011;7603;49.432;11.418;2023-07-30T07:15:22;2.50;;;2.40;;
15012;SDS011;7603;49.432;11.418;2023-07-30T07:17:48;7.97;;;2.60;;
15012;SDS011;7603;49.432;11.418;2023-07-30T07:20:14;2.65;;;2.55;;
15012;SDS011;7603;49.432;11.418;2023-07-30T07:22:39;3.03;;;1.98;;
15012;SDS011;7603;49.432;11.418;2023-07-30T07:25:05;2.55;;;2.40;;
15012;SDS011;7603;49.432;11.418;2023-07-30T07:27:31;2.60;;;2.50;;
15012;SDS011;7603;49.432;11.418;2023-07-30T07:29:56;2.00;;;1.90;;
15012;SDS011;7603;49.432;11.418;2023-07-30T07:32:22;3.97;;;2.10;;
15012;SDS011;7603;49.432;11.418;2023-07-30T07:34:48;4.85;;;2.65;;
15012;SDS011;7603;49.432;11.418;2023-07-30T07:37:14;2.38;;;2.28;;
15012;SDS011;7603;49.432;11.418;2023-07-30T07:39:41;3.08;;;2.88;;
15012;SDS011;7603;49.432;11.418;2023-07-30T07:42:07;2.30;;;2.10;;
15012;SDS011;7603;49.432;11.418;2023-07-30T07:44:33;4.20;;;2.83;;
15012;SDS011;7603;49.432;11.418;2023-07-30T07:46:58;2.35;;;2.25;;
15012;SDS011;7603;49.432;11.418;2023-07-30T07:49:24;2.10;;;2.00;;
15012;SDS011;7603;49.432;11.418;2023-07-30T07:51:49;2.00;;;1.90;;
15012;SDS011;7603;49.432;11.418;2023-07-30T07:54:15;2.92;;;2.72;;
15012;SDS011;7603;49.432;11.418;2023-07-30T07:56:41;3.63;;;3.33;;
15012;SDS011;7603;49.432;11.418;2023-07-30T07:59:06;2.05;;;1.95;;
15012;SDS011;7603;49.432;11.418;2023-07-30T08:01:32;2.40;;;2.20;;
15012;SDS011;7603;49.432;11.418;2023-07-30T08:03:57;1.98;;;1.88;;
15012;SDS011;7603;49.432;11.418;2023-07-30T08:06:23;2.88;;;2.05;;
15012;SDS011;7603;49.432;11.418;2023-07-30T08:08:49;2.40;;;2.30;;
15012;SDS011;7603;49.432;11.418;2023-07-30T08:11:15;2.88;;;2.45;;
15012;SDS011;7603;49.432;11.418;2023-07-30T08:13:40;2.60;;;2.25;;
15012;SDS011;7603;49.432;11.418;2023-07-30T08:16:06;2.35;;;2.25;;
15012;SDS011;7603;49.432;11.418;2023-07-30T08:18:32;2.80;;;2.60;;
15012;SDS011;7603;49.432;11.418;2023-07-30T08:20:57;2.40;;;2.30;;
15012;SDS011;7603;49.432;11.418;2023-07-30T08:23:24;2.30;;;2.20;;
15012;SDS011;7603;49.432;11.418;2023-07-30T08:25:50;2.83;;;2.63;;
15012;SDS011;7603;49.432;11.418;2023-07-30T08:28:15;4.53;;;2.20;;
15012;SDS011;7603;49.432;11.418;2023-07-30T08:30:41;4.63;;;2.33;;
15012;SDS011;7603;49.432;11.418;2023-07-30T08:33:06;2.58;;;2.38;;
15012;SDS011;7603;49.432;11.418;2023-07-30T08:35:32;2.50;;;2.30;;
15012;SDS011;7603;49.432;11.418;2023-07-30T08:37:58;5.07;;;2.80;;
15012;SDS011;7603;49.432;11.418;2023-07-30T08:40:23;2.65;;;2.30;;
15012;SDS011;7603;49.432;11.418;2023-07-30T08:42:50;2.40;;;2.30;;
15012;SDS011;7603;49.432;11.418;2023-07-30T08:45:16;2.72;;;2.28;;
15012;SDS011;7603;49.432;11.418;2023-07-30T08:47:42;4.75;;;2.40;;
15012;SDS011;7603;49.432;11.418;2023-07-30T08:50:09;2.40;;;2.30;;
15012;SDS011;7603;49.432;11.418;2023-07-30T08:52:35;2.85;;;2.20;;
15012;SDS011;7603;49.432;11.418;2023-07-30T08:55:01;2.25;;;2.15;;
15012;SDS011;7603;49.432;11.418;2023-07-30T08:57:30;2.03;;;1.92;;
15012;SDS011;7603;49.432;11.418;2023-07-30T09:00:00;3.75;;;1.73;;
15012;SDS011;7603;49.432;11.418;2023-07-30T09:02:34;3.75;;;2.47;;
15012;SDS011;7603;49.432;11.418;2023-07-30T09:05:04;2.75;;;2.65;;
15012;SDS011;7603;49.432;11.418;2023-07-30T09:07:31;2.65;;;2.45;;
15012;SDS011;7603;49.432;11.418;2023-07-30T09:09:56;2.42;;;2.33;;
15012;SDS011;7603;49.432;11.418;2023-07-30T09:12:25;2.63;;;2.53;;
15012;SDS011;7603;49.432;11.418;2023-07-30T09:14:54;2.08;;;1.98;;
15012;SDS011;7603;49.432;11.418;2023-07-30T09:17:19;1.60;;;1.60;;
15012;SDS011;7603;49.432;11.418;2023-07-30T09:19:45;1.85;;;1.75;;
15012;SDS011;7603;49.432;11.418;2023-07-30T09:24:54;1.90;;;1.80;;
15012;SDS011;7603;49.432;11.418;2023-07-30T09:27:21;2.30;;;2.20;;
15012;SDS011;7603;49.432;11.418;2023-07-30T09:29:58;1.80;;;1.70;;
15012;SDS011;7603;49.432;11.418;2023-07-30T09:32:28;1.75;;;1.70;;
15012;SDS011;7603;49.432;11.418;2023-07-30T09:35:05;1.50;;;1.50;;
15012;SDS011;7603;49.432;11.418;2023-07-30T09:37:32;1.88;;;1.77;;
15012;SDS011;7603;49.432;11.418;2023-07-30T09:40:01;2.53;;;2.42;;
15012;SDS011;7603;49.432;11.418;2023-07-30T09:42:27;2.30;;;2.20;;
15012;SDS011;7603;49.432;11.418;2023-07-30T09:44:53;1.98;;;1.88;;
15012;SDS011;7603;49.432;11.418;2023-07-30T09:47:23;2.13;;;2.03;;
15012;SDS011;7603;49.432;11.418;2023-07-30T09:49:51;2.10;;;2.00;;
15012;SDS011;7603;49.432;11.418;2023-07-30T09:52:18;2.33;;;2.15;;
15012;SDS011;7603;49.432;11.418;2023-07-30T09:54:45;2.30;;;2.20;;
15012;SDS011;7603;49.432;11.418;2023-07-30T09:57:11;1.90;;;1.80;;
15012;SDS011;7603;49.432;11.418;2023-07-30T09:59:37;1.90;;;1.90;;
15012;SDS011;7603;49.432;11.418;2023-07-30T10:02:03;2.38;;;2.28;;
15012;SDS011;7603;49.432;11.418;2023-07-30T10:04:31;2.08;;;1.90;;
15012;SDS011;7603;49.432;11.418;2023-07-30T10:07:00;2.15;;;2.05;;
15012;SDS011;7603;49.432;11.418;2023-07-30T10:09:32;2.35;;;2.15;;
15012;SDS011;7603;49.432;11.418;2023-07-30T10:12:03;3.03;;;2.28;;
15012;SDS011;7603;49.432;11.418;2023-07-30T10:14:30;2.38;;;2.28;;
15012;SDS011;7603;49.432;11.418;2023-07-30T10:16:59;1.77;;;1.67;;
15012;SDS011;7603;49.432;11.418;2023-07-30T10:19:26;1.70;;;1.60;;
15012;SDS011;7603;49.432;11.418;2023-07-30T10:22:19;1.92;;;1.77;;
15012;SDS011;7603;49.432;11.418;2023-07-30T10:24:56;2.28;;;2.17;;
15012;SDS011;7603;49.432;11.418;2023-07-30T10:27:24;1.42;;;1.42;;
15012;SDS011;7603;49.432;11.418;2023-07-30T10:30:07;1.67;;;1.58;;
15012;SDS011;7603;49.432;11.418;2023-07-30T10:38:39;1.50;;;1.50;;
15012;SDS011;7603;49.432;11.418;2023-07-30T10:41:15;2.40;;;1.58;;
15012;SDS011;7603;49.432;11.418;2023-07-30T10:43:43;2.17;;;2.00;;
15012;SDS011;7603;49.432;11.418;2023-07-30T10:46:13;2.50;;;2.40;;
15012;SDS011;7603;49.432;11.418;2023-07-30T10:48:40;3.92;;;3.53;;
15012;SDS011;7603;49.432;11.418;2023-07-30T10:51:11;2.10;;;2.00;;
15012;SDS011;7603;49.432;11.418;2023-07-30T10:53:45;1.80;;;1.80;;
15012;SDS011;7603;49.432;11.418;2023-07-30T10:56:12;2.75;;;2.00;;
15012;SDS011;7603;49.432;11.418;2023-07-30T10:58:39;2.28;;;2.17;;
15012;SDS011;7603;49.432;11.418;2023-07-30T11:01:05;4.03;;;2.53;;
15012;SDS011;7603;49.432;11.418;2023-07-30T11:03:32;4.55;;;3.17;;
15012;SDS011;7603;49.432;11.418;2023-07-30T11:05:59;3.03;;;2.75;;
15012;SDS011;7603;49.432;11.418;2023-07-30T11:08:38;4.63;;;2.67;;
15012;SDS011;7603;49.432;11.418;2023-07-30T11:11:06;5.35;;;2.42;;
15012;SDS011;7603;49.432;11.418;2023-07-30T11:13:45;2.38;;;2.17;;
15012;SDS011;7603;49.432;11.418;2023-07-30T11:16:12;2.65;;;2.42;;
15012;SDS011;7603;49.432;11.418;2023-07-30T11:18:38;3.13;;;2.13;;
15012;SDS011;7603;49.432;11.418;2023-07-30T11:21:05;2.40;;;2.20;;
15012;SDS011;7603;49.432;11.418;2023-07-30T11:23:39;3.00;;;2.80;;
15012;SDS011;7603;49.432;11.418;2023-07-30T11:26:07;2.20;;;2.10;;
15012;SDS011;7603;49.432;11.418;2023-07-30T11:28:35;2.03;;;1.92;;
15012;SDS011;7603;49.432;11.418;2023-07-30T11:33:32;2.50;;;2.40;;
15012;SDS011;7603;49.432;11.418;2023-07-30T11:36:01;2.35;;;2.20;;
15012;SDS011;7603;49.432;11.418;2023-07-30T11:38:28;1.92;;;1.83;;
15012;SDS011;7603;49.432;11.418;2023-07-30T11:40:55;2.15;;;2.05;;
15012;SDS011;7603;49.432;11.418;2023-07-30T11:43:22;2.17;;;2.05;;
15012;SDS011;7603;49.432;11.418;2023-07-30T11:45:48;2.25;;;2.15;;
15012;SDS011;7603;49.432;11.418;2023-07-30T11:48:30;1.88;;;1.77;;
15012;SDS011;7603;49.432;11.418;2023-07-30T11:50:56;2.05;;;1.88;;
15012;SDS011;7603;49.432;11.418;2023-07-30T11:53:21;2.17;;;1.58;;
15012;SDS011;7603;49.432;11.418;2023-07-30T11:55:47;1.75;;;1.65;;
15012;SDS011;7603;49.432;11.418;2023-07-30T11:58:13;1.70;;;1.60;;
15012;SDS011;7603;49.432;11.418;2023-07-30T12:00:40;1.80;;;1.70;;
15012;SDS011;7603;49.432;11.418;2023-07-30T12:03:09;1.95;;;1.85;;
15012;SDS011;7603;49.432;11.418;2023-07-30T12:05:37;2.20;;;2.10;;
15012;SDS011;7603;49.432;11.418;2023-07-30T12:08:04;2.10;;;2.00;;
15012;SDS011;7603;49.432;11.418;2023-07-30T12:10:45;1.77;;;1.75;;
15012;SDS011;7603;49.432;11.418;2023-07-30T12:13:16;2.08;;;1.98;;
15012;SDS011;7603;49.432;11.418;2023-07-30T12:15:55;2.00;;;1.90;;
15012;SDS011;7603;49.432;11.418;2023-07-30T12:18:21;2.20;;;1.55;;
15012;SDS011;7603;49.432;11.418;2023-07-30T12:20:49;2.00;;;1.90;;
15012;SDS011;7603;49.432;11.418;2023-07-30T12:23:15;1.63;;;1.52;;
15012;SDS011;7603;49.432;11.418;2023-07-30T12:25:44;1.65;;;1.63;;
15012;SDS011;7603;49.432;11.418;2023-07-30T12:28:11;1.85;;;1.75;;
15012;SDS011;7603;49.432;11.418;2023-07-30T12:30:37;2.35;;;1.83;;
15012;SDS011;7603;49.432;11.418;2023-07-30T12:33:03;2.00;;;1.75;;
15012;SDS011;7603;49.432;11.418;2023-07-30T12:35:32;2.17;;;2.08;;
15012;SDS011;7603;49.432;11.418;2023-07-30T12:37:59;1.80;;;1.70;;
15012;SDS011;7603;49.432;11.418;2023-07-30T12:40:25;1.67;;;1.58;;
15012;SDS011;7603;49.432;11.418;2023-07-30T12:42:51;1.63;;;1.63;;
15012;SDS011;7603;49.432;11.418;2023-07-30T12:45:17;1.85;;;1.75;;
15012;SDS011;7603;49.432;11.418;2023-07-30T12:47:43;1.50;;;1.50;;
15012;SDS011;7603;49.432;11.418;2023-07-30T12:50:10;1.75;;;1.65;;
15012;SDS011;7603;49.432;11.418;2023-07-30T12:52:36;2.53;;;1.60;;
15012;SDS011;7603;49.432;11.418;2023-07-30T12:55:01;2.33;;;1.63;;
15012;SDS011;7603;49.432;11.418;2023-07-30T12:57:29;1.85;;;1.60;;
15012;SDS011;7603;49.432;11.418;2023-07-30T12:59:54;2.47;;;1.63;;
15012;SDS011;7603;49.432;11.418;2023-07-30T13:02:20;1.60;;;1.50;;
15012;SDS011;7603;49.432;11.418;2023-07-30T13:04:46;1.85;;;1.75;;
15012;SDS011;7603;49.432;11.418;2023-07-30T13:07:11;1.60;;;1.50;;
15012;SDS011;7603;49.432;11.418;2023-07-30T13:09:37;1.95;;;1.55;;
15012;SDS011;7603;49.432;11.418;2023-07-30T13:12:02;2.00;;;1.90;;
15012;SDS011;7603;49.432;11.418;2023-07-30T13:14:28;1.35;;;1.33;;
15012;SDS011;7603;49.432;11.418;2023-07-30T13:16:54;2.08;;;1.90;;
15012;SDS011;7603;49.432;11.418;2023-07-30T13:19:19;1.50;;;1.50;;
15012;SDS011;7603;49.432;11.418;2023-07-30T13:21:45;1.60;;;1.60;;
15012;SDS011;7603;49.432;11.418;2023-07-30T13:24:10;1.80;;;1.67;;
15012;SDS011;7603;49.432;11.418;2023-07-30T13:26:36;2.10;;;1.60;;
15012;SDS011;7603;49.432;11.418;2023-07-30T13:29:01;1.88;;;1.77;;
15012;SDS011;7603;49.432;11.418;2023-07-30T13:31:27;1.90;;;1.80;;
15012;SDS011;7603;49.432;11.418;2023-07-30T13:33:53;1.65;;;1.58;;
15012;SDS011;7603;49.432;11.418;2023-07-30T13:36:19;2.10;;;1.90;;
15012;SDS011;7603;49.432;11.418;2023-07-30T13:38:44;2.03;;;1.88;;
15012;SDS011;7603;49.432;11.418;2023-07-30T13:41:11;1.85;;;1.50;;
15012;SDS011;7603;49.432;11.418;2023-07-30T13:43:37;1.90;;;1.80;;
15012;SDS011;7603;49.432;11.418;2023-07-30T13:46:02;3.30;;;1.60;;
15012;SDS011;7603;49.432;11.418;2023-07-30T13:48:28;3.47;;;2.15;;
15012;SDS011;7603;49.432;11.418;2023-07-30T13:50:53;1.73;;;1.63;;
15012;SDS011;7603;49.432;11.418;2023-07-30T13:53:19;2.15;;;2.05;;
15012;SDS011;7603;49.432;11.418;2023-07-30T13:55:45;2.30;;;2.15;;
15012;SDS011;7603;49.432;11.418;2023-07-30T13:58:11;2.20;;;2.00;;
15012;SDS011;7603;49.432;11.418;2023-07-30T14:00:39;2.88;;;2.00;;
15012;SDS011;7603;49.432;11.418;2023-07-30T14:03:05;2.25;;;1.70;;
15012;SDS011;7603;49.432;11.418;2023-07-30T14:05:31;1.73;;;1.65;;
15012;SDS011;7603;49.432;11.418;2023-07-30T14:07:57;1.95;;;1.85;;
15012;SDS011;7603;49.432;11.418;2023-07-30T14:10:23;1.90;;;1.80;;
15012;SDS011;7603;49.432;11.418;2023-07-30T14:12:49;1.85;;;1.75;;
15012;SDS011;7603;49.432;11.418;2023-07-30T14:15:14;2.00;;;1.90;;
15012;SDS011;7603;49.432;11.418;2023-07-30T14:17:40;1.90;;;1.80;;
15012;SDS011;7603;49.432;11.418;2023-07-30T14:20:06;2.10;;;2.00;;
15012;SDS011;7603;49.432;11.418;2023-07-30T14:22:33;2.03;;;1.92;;
15012;SDS011;7603;49.432;11.418;2023-07-30T14:25:00;2.60;;;2.15;;
15012;SDS011;7603;49.432;11.418;2023-07-30T14:27:26;4.18;;;1.75;;
15012;SDS011;7603;49.432;11.418;2023-07-30T14:29:51;3.65;;;2.83;;
15012;SDS011;7603;49.432;11.418;2023-07-30T14:32:19;2.03;;;1.92;;
15012;SDS011;7603;49.432;11.418;2023-07-30T14:34:45;5.10;;;1.75;;
15012;SDS011;7603;49.432;11.418;2023-07-30T14:37:11;2.30;;;1.83;;
15012;SDS011;7603;49.432;11.418;2023-07-30T14:39:37;1.85;;;1.75;;
15012;SDS011;7603;49.432;11.418;2023-07-30T14:42:02;2.10;;;2.00;;
15012;SDS011;7603;49.432;11.418;2023-07-30T14:44:28;2.50;;;2.30;;
15012;SDS011;7603;49.432;11.418;2023-07-30T14:46:54;2.65;;;1.85;;
15012;SDS011;7603;49.432;11.418;2023-07-30T14:49:19;4.00;;;1.80;;
15012;SDS011;7603;49.432;11.418;2023-07-30T14:51:45;1.90;;;1.80;;
15012;SDS011;7603;49.432;11.418;2023-07-30T14:54:12;1.80;;;1.70;;
15012;SDS011;7603;49.432;11.418;2023-07-30T14:56:37;3.08;;;1.48;;
15012;SDS011;7603;49.432;11.418;2023-07-30T14:59:03;3.03;;;1.90;;